createdAt,value
2023-04-16T00:01:54.467Z,100546.09
2023-04-16T00:04:23.223Z,100555.72
2023-04-16T00:06:53.373Z,100548.72
2023-04-16T00:09:21.968Z,100553.94
2023-04-16T00:11:51.110Z,100555.66
2023-04-16T00:14:19.800Z,100560.84
2023-04-16T00:16:48.589Z,100560.84
2023-04-16T00:19:17.445Z,100553.81
2023-04-16T00:21:46.239Z,100557.25
2023-04-16T00:24:16.134Z,100560.69
2023-04-16T00:26:46.510Z,100557.25
2023-04-16T00:29:15.142Z,100552.03
2023-04-16T00:31:44.117Z,100559.88
2023-04-16T00:34:13.914Z,100562.47
2023-04-16T00:36:42.669Z,100561.59
2023-04-16T00:39:11.559Z,100564.25
2023-04-16T00:41:41.643Z,100558.97
2023-04-16T00:44:10.325Z,100562.47
2023-04-16T00:46:39.330Z,100565.09
2023-04-16T00:49:08.370Z,100567.81
2023-04-16T00:51:37.900Z,100571.28
2023-04-16T00:54:07.861Z,100571.28
2023-04-16T00:56:37.261Z,100571.28
2023-04-16T00:59:07.831Z,100562.47
2023-04-16T01:01:36.793Z,100565.09
2023-04-16T01:04:07.270Z,100566.94
2023-04-16T01:06:36.346Z,100567.81
2023-04-16T01:09:05.190Z,100567.81
2023-04-16T01:11:34.109Z,100567.81
2023-04-16T01:14:02.860Z,100564.38
2023-04-16T01:16:33.927Z,100564.38
2023-04-16T01:19:02.957Z,100571.38
2023-04-16T01:21:33.139Z,100572.19
2023-04-16T01:24:03.976Z,100576.59
2023-04-16T01:26:35.448Z,100577.41
2023-04-16T01:29:04.234Z,100580.94
2023-04-16T01:31:32.965Z,100587.94
2023-04-16T01:34:06.591Z,100584.47
2023-04-16T01:36:37.986Z,100580.19
2023-04-16T01:39:06.808Z,100581.94
2023-04-16T01:41:36.225Z,100580.19
2023-04-16T01:44:05.213Z,100581.09
2023-04-16T01:46:35.107Z,100588.94
2023-04-16T01:49:04.092Z,100585.53
2023-04-16T01:51:33.238Z,100585.53
2023-04-16T01:54:03.253Z,100589.09
2023-04-16T01:56:31.875Z,100583.88
2023-04-16T01:59:01.740Z,100584.69
2023-04-16T02:01:37.080Z,100587.28
2023-04-16T02:04:07.018Z,100589.91
2023-04-16T02:06:42.158Z,100582.97
2023-04-16T02:09:20.491Z,100581.09
2023-04-16T02:11:53.429Z,100577.69
2023-04-16T02:14:26.783Z,100575.88
2023-04-16T02:16:56.915Z,100580.31
2023-04-16T02:19:56.731Z,100575.09
2023-04-16T02:22:26.388Z,100582.06
2023-04-16T02:24:56.797Z,100582.91
2023-04-16T02:27:26.230Z,100579.47
2023-04-16T02:30:00.558Z,100585.53
2023-04-16T02:32:35.849Z,100587.25
2023-04-16T02:35:10.376Z,100581.06
2023-04-16T02:37:40.829Z,100577.56
2023-04-16T02:40:18.535Z,100587.16
2023-04-16T02:42:52.841Z,100584.56
2023-04-16T02:45:21.634Z,100586.28
2023-04-16T02:47:50.424Z,100582.78
2023-04-16T02:50:19.687Z,100589.69
2023-04-16T02:52:48.695Z,100580.97
2023-04-16T02:55:19.131Z,100594.03
2023-04-16T02:58:00.901Z,100587.09
2023-04-16T03:00:29.437Z,100584.47
2023-04-16T03:02:58.137Z,100590.63
2023-04-16T03:05:27.156Z,100588.81
2023-04-16T03:07:57.279Z,100584.44
2023-04-16T03:10:27.574Z,100588.81
2023-04-16T03:12:56.192Z,100588.81
2023-04-16T03:15:25.332Z,100588.81
2023-04-16T03:17:54.132Z,100583.59
2023-04-16T03:20:22.811Z,100591.41
2023-04-16T03:22:53.235Z,100592.31
2023-04-16T03:25:21.920Z,100597.59
2023-04-16T03:27:52.310Z,100602.81
2023-04-16T03:30:20.925Z,100598.47
2023-04-16T03:32:49.762Z,100603.72
2023-04-16T03:35:19.530Z,100602.81
2023-04-16T03:37:48.284Z,100602.81
2023-04-16T03:40:16.978Z,100600.22
2023-04-16T03:42:45.509Z,100601.19
2023-04-16T03:45:15.909Z,100602.06
2023-04-16T03:47:48.564Z,100602.94
2023-04-16T03:50:17.382Z,100599.53
2023-04-16T03:52:46.991Z,100599.53
2023-04-16T03:55:16.571Z,100599.53
2023-04-16T03:57:55.886Z,100596.00
2023-04-16T04:00:28.523Z,100600.41
2023-04-16T04:03:06.630Z,100594.31
2023-04-16T04:05:37.849Z,100600.41
2023-04-16T04:08:06.854Z,100590.88
2023-04-16T04:10:36.059Z,100597.84
2023-04-16T04:13:07.243Z,100605.69
2023-04-16T04:15:38.430Z,100608.28
2023-04-16T04:18:07.134Z,100610.09
2023-04-16T04:20:40.971Z,100610.09
2023-04-16T04:23:10.095Z,100611.84
2023-04-16T04:25:38.914Z,100607.56
2023-04-16T04:28:07.465Z,100619.75
2023-04-16T04:30:37.903Z,100618.88
2023-04-16T04:33:07.823Z,100616.28
2023-04-16T04:35:36.613Z,100620.66
2023-04-16T04:38:05.144Z,100618.94
2023-04-16T04:40:34.509Z,100621.53
2023-04-16T04:43:03.273Z,100618.03
2023-04-16T04:45:44.304Z,100627.69
2023-04-16T04:48:26.257Z,100621.53
2023-04-16T04:51:18.128Z,100627.69
2023-04-16T04:53:48.419Z,100630.28
2023-04-16T04:56:16.960Z,100639.00
2023-04-16T04:58:45.799Z,100633.78
2023-04-16T05:01:22.189Z,100640.72
2023-04-16T05:03:50.918Z,100633.78
2023-04-16T05:06:19.658Z,100632.88
2023-04-16T05:08:49.083Z,100642.50
2023-04-16T05:11:17.878Z,100645.97
2023-04-16T05:13:46.618Z,100641.66
2023-04-16T05:16:15.463Z,100646.88
2023-04-16T05:18:45.638Z,100650.31
2023-04-16T05:21:14.236Z,100653.00
2023-04-16T05:23:43.416Z,100664.38
2023-04-16T05:26:11.970Z,100655.66
2023-04-16T05:28:40.925Z,100657.47
2023-04-16T05:31:10.235Z,100652.25
2023-04-16T05:33:38.848Z,100659.25
2023-04-16T05:36:09.104Z,100665.41
2023-04-16T05:38:40.859Z,100662.81
2023-04-16T05:41:10.232Z,100668.16
2023-04-16T05:43:38.739Z,100673.38
2023-04-16T05:46:07.328Z,100682.16
2023-04-16T05:48:36.040Z,100685.75
2023-04-16T05:51:04.809Z,100680.53
2023-04-16T05:53:35.288Z,100685.75
2023-04-16T05:56:07.329Z,100686.72
2023-04-16T05:58:36.242Z,100693.69
2023-04-16T06:01:04.819Z,100691.94
2023-04-16T06:03:33.461Z,100692.81
2023-04-16T06:06:02.169Z,100701.53
2023-04-16T06:08:30.692Z,100700.66
2023-04-16T06:11:00.673Z,100696.31
2023-04-16T06:13:29.143Z,100703.31
2023-04-16T06:15:57.823Z,100698.09
2023-04-16T06:18:26.440Z,100702.50
2023-04-16T06:20:55.052Z,100706.00
2023-04-16T06:23:23.818Z,100706.88
2023-04-16T06:25:52.537Z,100701.66
2023-04-16T06:28:22.623Z,100711.28
2023-04-16T06:30:51.102Z,100714.78
2023-04-16T06:33:19.700Z,100715.69
2023-04-16T06:35:48.280Z,100719.16
2023-04-16T06:38:17.214Z,100723.63
2023-04-16T06:40:45.845Z,100723.63
2023-04-16T06:43:15.785Z,100732.34
2023-04-16T06:45:45.726Z,100723.72
2023-04-16T06:48:14.297Z,100729.81
2023-04-16T06:50:43.183Z,100731.59
2023-04-16T06:53:11.743Z,100731.66
2023-04-16T06:55:40.309Z,100731.59
2023-04-16T06:58:11.300Z,100732.56
2023-04-16T07:00:43.134Z,100738.75
2023-04-16T07:03:13.349Z,100732.63
2023-04-16T07:05:41.967Z,100727.41
2023-04-16T07:08:11.253Z,100737.91
2023-04-16T07:10:39.960Z,100732.69
2023-04-16T07:13:08.604Z,100738.88
2023-04-16T07:15:37.129Z,100737.22
2023-04-16T07:18:06.575Z,100734.59
2023-04-16T07:20:37.200Z,100733.81
2023-04-16T07:23:05.802Z,100733.84
2023-04-16T07:25:34.410Z,100733.94
2023-04-16T07:28:04.474Z,100743.59
2023-04-16T07:30:34.671Z,100741.03
2023-04-16T07:33:04.358Z,100738.59
2023-04-16T07:35:33.291Z,100744.69
2023-04-16T07:38:03.347Z,100753.53
2023-04-16T07:40:32.009Z,100744.06
2023-04-16T07:43:00.582Z,100747.63
2023-04-16T07:45:29.212Z,100751.22
2023-04-16T07:47:57.750Z,100753.94
2023-04-16T07:50:26.549Z,100759.28
2023-04-16T07:52:54.995Z,100758.53
2023-04-16T07:55:25.469Z,100759.56
2023-04-16T07:57:54.057Z,100771.03
2023-04-16T08:00:23.998Z,100772.06
2023-04-16T08:02:53.314Z,100768.72
2023-04-16T08:05:22.131Z,100775.00
2023-04-16T08:07:50.890Z,100777.78
2023-04-16T08:10:19.779Z,100779.63
2023-04-16T08:12:51.989Z,100780.72
2023-04-16T08:15:21.148Z,100778.28
2023-04-16T08:17:49.887Z,100785.56
2023-04-16T08:20:19.347Z,100786.63
2023-04-16T08:22:49.307Z,100789.38
2023-04-16T08:25:18.349Z,100795.69
2023-04-16T08:27:47.073Z,100787.97
2023-04-16T08:30:17.531Z,100784.69
2023-04-16T08:32:48.662Z,100791.84
2023-04-16T08:35:18.840Z,100794.56
2023-04-16T08:37:47.382Z,100795.56
2023-04-16T08:40:16.154Z,100800.13
2023-04-16T08:42:54.445Z,100803.69
2023-04-16T08:45:27.335Z,100804.75
2023-04-16T08:47:56.060Z,100798.88
2023-04-16T08:50:26.732Z,100806.81
2023-04-16T08:52:59.606Z,100807.81
2023-04-16T08:55:37.526Z,100809.78
2023-04-16T08:58:10.742Z,100814.31
2023-04-16T09:00:42.183Z,100814.41
2023-04-16T09:03:11.338Z,100811.94
2023-04-16T09:05:40.914Z,100817.28
2023-04-16T09:08:09.705Z,100814.91
2023-04-16T09:10:38.354Z,100818.53
2023-04-16T09:13:09.558Z,100815.97
2023-04-16T09:15:40.880Z,100823.97
2023-04-16T09:18:09.933Z,100820.50
2023-04-16T09:20:38.635Z,100811.78
2023-04-16T09:23:07.178Z,100818.81
2023-04-16T09:25:37.347Z,100815.38
2023-04-16T09:28:06.234Z,100825.84
2023-04-16T09:30:35.023Z,100824.16
2023-04-16T09:33:22.656Z,100820.84
2023-04-16T09:35:53.898Z,100828.03
2023-04-16T09:38:22.585Z,100827.31
2023-04-16T09:41:07.346Z,100830.88
2023-04-16T09:43:36.538Z,100833.56
2023-04-16T09:46:08.291Z,100837.13
2023-04-16T09:48:38.733Z,100832.78
2023-04-16T09:51:08.196Z,100835.47
2023-04-16T09:53:36.993Z,100837.22
2023-04-16T09:56:07.788Z,100840.81
2023-04-16T09:58:38.420Z,100839.16
2023-04-16T10:01:09.415Z,100841.91
2023-04-16T10:03:40.677Z,100843.91
2023-04-16T10:06:15.030Z,100843.28
2023-04-16T10:08:49.955Z,100838.25
2023-04-16T10:11:19.991Z,100838.47
2023-04-16T10:13:48.713Z,100839.47
2023-04-16T10:16:17.789Z,100837.91
2023-04-16T10:18:48.280Z,100843.31
2023-04-16T10:21:17.352Z,100843.41
2023-04-16T10:23:46.382Z,100838.41
2023-04-16T10:26:15.395Z,100844.69
2023-04-16T10:28:44.018Z,100835.25
2023-04-16T10:31:14.012Z,100834.63
2023-04-16T10:33:43.874Z,100837.50
2023-04-16T10:36:15.513Z,100838.59
2023-04-16T10:38:47.744Z,100834.41
2023-04-16T10:41:17.078Z,100838.13
2023-04-16T10:43:47.193Z,100851.41
2023-04-16T10:46:20.804Z,100854.22
2023-04-16T10:48:50.934Z,100838.63
2023-04-16T10:51:31.519Z,100850.22
2023-04-16T10:54:19.838Z,100841.50
2023-04-16T10:56:49.891Z,100834.66
2023-04-16T10:59:23.420Z,100836.56
2023-04-16T11:01:53.913Z,100834.97
2023-04-16T11:04:36.737Z,100833.38
2023-04-16T11:07:17.346Z,100832.72
2023-04-16T11:10:02.322Z,100829.53
2023-04-16T11:12:38.194Z,100832.44
2023-04-16T11:15:09.077Z,100833.47
2023-04-16T11:17:39.962Z,100834.50
2023-04-16T11:20:19.089Z,100836.50
2023-04-16T11:22:51.293Z,100841.16
2023-04-16T11:25:23.406Z,100837.06
2023-04-16T11:27:53.174Z,100836.41
2023-04-16T11:30:30.467Z,100837.41
2023-04-16T11:32:59.196Z,100847.94
2023-04-16T11:35:27.799Z,100847.00
2023-04-16T11:37:59.151Z,100845.22
2023-04-16T11:40:31.359Z,100853.03
2023-04-16T11:43:04.028Z,100837.25
2023-04-16T11:45:32.835Z,100845.31
2023-04-16T11:48:01.621Z,100841.19
2023-04-16T11:50:31.006Z,100841.38
2023-04-16T11:53:07.632Z,100841.50
2023-04-16T11:55:45.898Z,100839.09
2023-04-16T11:58:16.369Z,100841.97
2023-04-16T12:00:46.979Z,100840.34
2023-04-16T12:03:18.056Z,100843.97
2023-04-16T12:05:47.557Z,100845.81
2023-04-16T12:08:31.148Z,100859.91
2023-04-16T12:11:00.715Z,100845.00
2023-04-16T12:13:30.162Z,100852.91
2023-04-16T12:15:59.024Z,100848.47
2023-04-16T12:18:28.193Z,100842.38
2023-04-16T12:20:57.110Z,100846.84
2023-04-16T12:23:28.915Z,100851.34
2023-04-16T12:25:59.677Z,100853.09
2023-04-16T12:28:30.120Z,100860.16
2023-04-16T12:30:58.927Z,100853.22
2023-04-16T12:33:27.567Z,100862.88
2023-04-16T12:35:56.276Z,100858.53
2023-04-16T12:38:26.372Z,100861.13
2023-04-16T12:40:58.428Z,100861.09
2023-04-16T12:43:27.624Z,100861.06
2023-04-16T12:45:56.309Z,100856.75
2023-04-16T12:48:25.167Z,100856.03
2023-04-16T12:50:55.316Z,100851.72
2023-04-16T12:53:24.042Z,100855.34
2023-04-16T12:55:52.768Z,100858.03
2023-04-16T12:58:22.727Z,100858.03
2023-04-16T13:00:51.225Z,100853.53
2023-04-16T13:03:20.992Z,100852.66
2023-04-16T13:05:49.887Z,100860.63
2023-04-16T13:08:18.474Z,100852.78
2023-04-16T13:10:47.117Z,100846.53
2023-04-16T13:13:16.504Z,100848.34
2023-04-16T13:15:46.486Z,100849.09
2023-04-16T13:18:15.107Z,100853.53
2023-04-16T13:20:44.147Z,100846.47
2023-04-16T13:23:12.835Z,100852.59
2023-04-16T13:25:41.463Z,100853.53
2023-04-16T13:28:10.031Z,100845.66
2023-04-16T13:30:38.728Z,100857.13
2023-04-16T13:33:09.371Z,100851.72
2023-04-16T13:35:38.061Z,100857.81
2023-04-16T13:38:06.661Z,100855.03
2023-04-16T13:40:35.301Z,100849.63
2023-04-16T13:43:04.955Z,100856.53
2023-04-16T13:45:34.681Z,100856.47
2023-04-16T13:48:03.607Z,100858.28
2023-04-16T13:50:33.472Z,100855.72
2023-04-16T13:53:02.259Z,100851.38
2023-04-16T13:55:32.208Z,100843.50
2023-04-16T13:58:00.872Z,100841.69
2023-04-16T14:00:29.559Z,100845.22
2023-04-16T14:02:58.345Z,100841.69
2023-04-16T14:05:27.313Z,100849.63
2023-04-16T14:07:57.389Z,100842.69
2023-04-16T14:10:26.028Z,100840.94
2023-04-16T14:12:54.796Z,100845.50
2023-04-16T14:15:23.605Z,100843.00
2023-04-16T14:17:52.271Z,100839.50
2023-04-16T14:20:21.277Z,100848.34
2023-04-16T14:22:49.896Z,100848.47
2023-04-16T14:25:19.885Z,100837.09
2023-04-16T14:27:48.460Z,100845.13
2023-04-16T14:30:17.677Z,100850.47
2023-04-16T14:32:46.327Z,100855.75
2023-04-16T14:35:14.965Z,100851.34
2023-04-16T14:37:43.692Z,100846.03
2023-04-16T14:40:13.274Z,100850.41
2023-04-16T14:42:43.374Z,100853.00
2023-04-16T14:45:12.204Z,100846.03
2023-04-16T14:47:45.978Z,100845.22
2023-04-16T14:50:17.193Z,100850.47
2023-04-16T14:52:45.834Z,100844.38
2023-04-16T14:55:14.713Z,100840.94
2023-04-16T14:57:44.786Z,100851.53
2023-04-16T15:00:17.240Z,100847.13
2023-04-16T15:02:46.269Z,100848.03
2023-04-16T15:05:15.632Z,100843.69
2023-04-16T15:07:44.305Z,100845.44
2023-04-16T15:10:13.816Z,100847.31
2023-04-16T15:12:42.319Z,100845.56
2023-04-16T15:15:12.677Z,100846.56
2023-04-16T15:17:41.517Z,100840.53
2023-04-16T15:20:11.132Z,100842.53
2023-04-16T15:22:39.983Z,100848.09
2023-04-16T15:25:09.689Z,100846.53
2023-04-16T15:27:38.281Z,100841.28
2023-04-16T15:30:08.733Z,100837.06
2023-04-16T15:32:39.418Z,100834.75
2023-04-16T15:35:11.181Z,100838.69
2023-04-16T15:37:40.359Z,100835.53
2023-04-16T15:40:09.506Z,100841.16
2023-04-16T15:42:38.227Z,100844.06
2023-04-16T15:45:07.693Z,100838.22
2023-04-16T15:47:40.186Z,100835.69
2023-04-16T15:50:10.293Z,100833.16
2023-04-16T15:52:39.447Z,100838.44
2023-04-16T15:55:08.378Z,100829.59
2023-04-16T15:57:37.130Z,100826.16
2023-04-16T16:00:13.704Z,100824.38
2023-04-16T16:02:44.721Z,100834.16
2023-04-16T16:05:14.677Z,100837.78
2023-04-16T16:07:44.576Z,100834.19
2023-04-16T16:10:14.179Z,100828.78
2023-04-16T16:12:42.921Z,100840.16
2023-04-16T16:15:12.125Z,100841.81
2023-04-16T16:17:41.315Z,100830.25
2023-04-16T16:20:12.993Z,100832.81
2023-04-16T16:22:45.123Z,100837.00
2023-04-16T16:25:14.306Z,100836.84
2023-04-16T16:27:43.039Z,100839.34
2023-04-16T16:30:13.901Z,100833.88
2023-04-16T16:32:44.289Z,100842.53
2023-04-16T16:35:14.340Z,100844.16
2023-04-16T16:37:42.934Z,100838.72
2023-04-16T16:40:12.422Z,100840.38
2023-04-16T16:42:41.026Z,100846.34
2023-04-16T16:45:11.209Z,100850.56
2023-04-16T16:47:40.064Z,100847.78
2023-04-16T16:50:11.387Z,100857.28
2023-04-16T16:52:41.820Z,100860.63
2023-04-16T16:55:11.228Z,100862.16
2023-04-16T16:57:40.068Z,100855.78
2023-04-16T17:00:14.375Z,100866.16
2023-04-16T17:02:43.519Z,100865.09
2023-04-16T17:05:12.627Z,100867.66
2023-04-16T17:07:42.672Z,100870.13
2023-04-16T17:10:13.356Z,100865.63
2023-04-16T17:12:42.012Z,100875.09
2023-04-16T17:15:13.419Z,100871.41
2023-04-16T17:17:42.596Z,100867.75
2023-04-16T17:20:12.542Z,100876.34
2023-04-16T17:22:43.562Z,100875.28
2023-04-16T17:25:12.379Z,100873.34
2023-04-16T17:27:40.924Z,100875.88
2023-04-16T17:30:10.472Z,100869.56
2023-04-16T17:32:39.002Z,100875.63
2023-04-16T17:35:09.394Z,100878.19
2023-04-16T17:37:37.934Z,100878.06
2023-04-16T17:40:10.096Z,100884.13
2023-04-16T17:42:39.746Z,100887.50
2023-04-16T17:45:09.434Z,100890.81
2023-04-16T17:47:38.451Z,100893.28
2023-04-16T17:50:08.536Z,100887.91
2023-04-16T17:52:37.599Z,100889.50
2023-04-16T17:55:08.321Z,100890.25
2023-04-16T17:57:37.381Z,100890.06
2023-04-16T18:00:11.040Z,100887.38
2023-04-16T18:02:42.764Z,100898.66
2023-04-16T18:05:11.646Z,100895.91
2023-04-16T18:07:40.332Z,100897.59
2023-04-16T18:10:11.366Z,100904.47
2023-04-16T18:12:39.983Z,100911.38
2023-04-16T18:15:10.265Z,100906.94
2023-04-16T18:17:39.176Z,100915.66
2023-04-16T18:20:11.680Z,100913.78
2023-04-16T18:22:40.605Z,100911.94
2023-04-16T18:27:40.519Z,100914.44
2023-04-16T18:30:19.800Z,100918.75
2023-04-16T18:33:06.832Z,100908.16
2023-04-16T18:35:47.475Z,100921.22
2023-04-16T18:38:18.370Z,100913.31
2023-04-16T18:40:50.758Z,100922.03
2023-04-16T18:43:20.717Z,100915.84
2023-04-16T18:45:51.582Z,100920.16
2023-04-16T18:48:21.009Z,100930.59
2023-04-16T18:50:50.133Z,100937.59
2023-04-16T18:53:19.138Z,100938.47
2023-04-16T18:55:56.432Z,100936.72
2023-04-16T18:58:28.822Z,100934.03
2023-04-16T19:01:00.263Z,100941.91
2023-04-16T19:03:31.264Z,100933.94
2023-04-16T19:06:00.459Z,100939.13
2023-04-16T19:08:33.458Z,100940.81
2023-04-16T19:11:09.308Z,100949.53
2023-04-16T19:13:43.694Z,100950.41
2023-04-16T19:16:14.130Z,100950.34
2023-04-16T19:18:44.772Z,100952.03
2023-04-16T19:21:14.030Z,100956.31
2023-04-16T19:23:43.265Z,100958.91
2023-04-16T19:26:14.111Z,100963.22
2023-04-16T19:28:43.520Z,100958.81
2023-04-16T19:31:12.826Z,100960.50
2023-04-16T19:33:43.225Z,100954.34
2023-04-16T19:36:12.060Z,100954.25
2023-04-16T19:38:40.691Z,100955.03
2023-04-16T19:41:09.827Z,100944.50
2023-04-16T19:43:41.140Z,100957.63
2023-04-16T19:46:15.047Z,100949.63
2023-04-16T19:48:50.963Z,100955.66
2023-04-16T19:51:23.750Z,100958.25
2023-04-16T19:53:57.018Z,100958.19
2023-04-16T19:56:32.199Z,100952.91
2023-04-16T19:59:08.473Z,100956.28
2023-04-16T20:01:43.031Z,100961.44
2023-04-16T20:04:15.281Z,100966.59
2023-04-16T20:06:46.955Z,100960.41
2023-04-16T20:09:19.041Z,100963.00
2023-04-16T20:11:48.672Z,100968.97
2023-04-16T20:14:19.385Z,100969.81
2023-04-16T20:16:50.162Z,100964.44
2023-04-16T20:19:22.533Z,100969.66
2023-04-16T20:21:53.762Z,100974.78
2023-04-16T20:24:24.915Z,100970.38
2023-04-16T20:26:55.821Z,100971.22
2023-04-16T20:29:27.688Z,100974.66
2023-04-16T20:31:56.688Z,100964.97
2023-04-16T20:34:27.287Z,100971.06
2023-04-16T20:36:58.233Z,100971.88
2023-04-16T20:39:27.449Z,100973.59
2023-04-16T20:41:57.590Z,100976.13
2023-04-16T20:44:33.440Z,100978.69
2023-04-16T20:47:03.777Z,100981.22
2023-04-16T20:49:34.716Z,100976.81
2023-04-16T20:52:08.295Z,100973.25
2023-04-16T20:54:37.293Z,100971.41
2023-04-16T20:57:09.394Z,100974.88
2023-04-16T20:59:41.779Z,100973.03
2023-04-16T21:02:10.912Z,100976.53
2023-04-16T21:04:39.931Z,100968.59
2023-04-16T21:07:08.920Z,100969.38
2023-04-16T21:09:37.801Z,100972.78
2023-04-16T21:12:27.729Z,100971.81
2023-04-16T21:14:58.212Z,100970.88
2023-04-16T21:17:29.659Z,100970.75
2023-04-16T21:19:58.899Z,100971.59
2023-04-16T21:22:27.557Z,100967.16
2023-04-16T21:24:56.276Z,100967.06
2023-04-16T21:27:24.947Z,100969.63
2023-04-16T21:29:53.951Z,100959.91
2023-04-16T21:32:24.375Z,100973.88
2023-04-16T21:34:54.490Z,100977.34
2023-04-16T21:37:24.455Z,100972.09
2023-04-16T21:39:53.726Z,100965.06
2023-04-16T21:42:22.746Z,100972.88
2023-04-16T21:44:52.844Z,100967.50
2023-04-16T21:47:23.384Z,100981.41
2023-04-16T21:49:52.279Z,100973.41
2023-04-16T21:52:22.763Z,100969.84
2023-04-16T21:54:51.396Z,100973.25
2023-04-16T21:57:20.092Z,100971.41
2023-04-16T21:59:49.077Z,100968.75
2023-04-16T22:02:21.116Z,100968.59
2023-04-16T22:04:52.400Z,100965.94
2023-04-16T22:07:39.322Z,100977.25
2023-04-16T22:10:12.310Z,100978.03
2023-04-16T22:12:42.385Z,100974.50
2023-04-16T22:15:11.577Z,100975.38
2023-04-16T22:17:41.517Z,100972.75
2023-04-16T22:20:13.384Z,100980.53
2023-04-16T22:22:43.094Z,100974.41
2023-04-16T22:25:12.169Z,100969.97
2023-04-16T22:27:41.221Z,100970.81
2023-04-16T22:30:10.779Z,100976.06
2023-04-16T22:32:40.916Z,100974.28
2023-04-16T22:35:15.585Z,100973.38
2023-04-16T22:37:46.250Z,100973.38
2023-04-16T22:40:15.991Z,100972.50
2023-04-16T22:42:44.775Z,100969.84
2023-04-16T22:45:13.817Z,100968.91
2023-04-16T22:47:44.516Z,100967.13
2023-04-16T22:50:15.247Z,100968.03
2023-04-16T22:52:44.051Z,100971.53
2023-04-16T22:55:15.275Z,100968.09
2023-04-16T22:57:44.039Z,100969.88
2023-04-16T23:00:16.479Z,100965.50
2023-04-16T23:02:47.920Z,100965.47
2023-04-16T23:05:18.072Z,100956.75
2023-04-16T23:07:48.078Z,100962.00
2023-04-16T23:10:17.583Z,100959.34
2023-04-16T23:12:46.428Z,100966.28
2023-04-16T23:15:15.129Z,100967.06
2023-04-16T23:17:44.288Z,100967.91
2023-04-16T23:20:14.442Z,100977.50
2023-04-16T23:22:44.808Z,100975.69
2023-04-16T23:25:19.096Z,100963.44
2023-04-16T23:27:48.614Z,100963.38
2023-04-16T23:30:17.650Z,100964.22
2023-04-16T23:32:46.656Z,100970.34
2023-04-16T23:35:21.878Z,100961.53
2023-04-16T23:37:53.176Z,100967.66
2023-04-16T23:40:22.130Z,100966.78
2023-04-16T23:42:51.832Z,100977.25
2023-04-16T23:45:20.495Z,100978.91
2023-04-16T23:47:52.675Z,100964.94
2023-04-16T23:50:21.570Z,100969.28
2023-04-16T23:52:54.765Z,100964.88
2023-04-16T23:55:24.256Z,100960.53
2023-04-16T23:57:54.632Z,100964.88
